createdAt,value
2023-04-18T00:00:42.207Z,12.00
2023-04-18T00:03:10.193Z,12.00
2023-04-18T00:05:37.883Z,12.00
2023-04-18T00:08:05.526Z,12.00
2023-04-18T00:10:32.451Z,11.90
2023-04-18T00:12:59.088Z,11.90
2023-04-18T00:15:25.953Z,11.90
2023-04-18T00:17:56.415Z,11.90
2023-04-18T00:20:26.032Z,11.90
2023-04-18T00:22:53.183Z,11.90
2023-04-18T00:25:19.895Z,11.90
2023-04-18T00:27:46.555Z,11.90
2023-04-18T00:30:13.464Z,11.90
2023-04-18T00:32:40.466Z,11.90
2023-04-18T00:35:07.452Z,11.90
2023-04-18T00:37:34.089Z,11.90
2023-04-18T00:40:00.697Z,11.90
2023-04-18T00:42:28.831Z,11.90
2023-04-18T00:44:55.520Z,11.80
2023-04-18T00:47:22.287Z,11.80
2023-04-18T00:49:49.203Z,11.90
2023-04-18T00:52:16.679Z,11.80
2023-04-18T00:54:43.342Z,11.80
2023-04-18T00:57:10.003Z,11.80
2023-04-18T01:02:10.448Z,11.80
2023-04-18T01:04:37.304Z,11.80
2023-04-18T01:07:04.607Z,11.80
2023-04-18T01:09:31.586Z,11.80
2023-04-18T01:11:58.254Z,11.80
2023-04-18T01:14:25.004Z,11.80
2023-04-18T01:16:51.654Z,11.80
2023-04-18T01:19:18.342Z,11.80
2023-04-18T01:21:45.452Z,11.80
2023-04-18T01:24:14.759Z,11.80
2023-04-18T01:26:44.723Z,11.80
2023-04-18T01:29:11.857Z,11.80
2023-04-18T01:31:40.304Z,11.80
2023-04-18T01:34:08.231Z,14.80
2023-04-18T01:36:37.219Z,11.80
2023-04-18T01:39:04.087Z,11.80
2023-04-18T01:41:32.883Z,11.80
2023-04-18T01:44:00.057Z,11.80
2023-04-18T01:46:27.524Z,11.80
2023-04-18T01:48:54.643Z,11.80
2023-04-18T01:51:21.489Z,11.70
2023-04-18T01:53:48.457Z,11.70
2023-04-18T01:56:15.313Z,11.00
2023-04-18T01:58:42.021Z,11.70
2023-04-18T02:01:08.813Z,11.70
2023-04-18T02:03:35.980Z,11.70
2023-04-18T02:06:06.182Z,11.70
2023-04-18T02:08:35.639Z,11.70
2023-04-18T02:11:02.707Z,11.60
2023-04-18T02:13:29.446Z,11.70
2023-04-18T02:15:56.099Z,11.60
2023-04-18T02:18:24.810Z,11.70
2023-04-18T02:20:51.915Z,11.70
2023-04-18T02:23:18.899Z,11.70
2023-04-18T02:25:45.785Z,11.70
2023-04-18T02:28:12.462Z,11.60
2023-04-18T02:30:39.158Z,11.60
2023-04-18T02:33:05.893Z,12.50
2023-04-18T02:35:32.568Z,11.60
2023-04-18T02:37:59.359Z,11.60
2023-04-18T02:40:26.038Z,11.60
2023-04-18T02:42:52.773Z,11.60
2023-04-18T02:45:19.449Z,11.60
2023-04-18T02:47:54.593Z,11.60
2023-04-18T02:50:22.605Z,11.60
2023-04-18T02:52:49.331Z,11.50
2023-04-18T02:55:16.186Z,11.50
2023-04-18T02:57:43.089Z,11.50
2023-04-18T03:00:10.356Z,12.60
2023-04-18T03:02:37.180Z,11.50
2023-04-18T03:05:04.615Z,11.50
2023-04-18T03:07:31.493Z,11.50
2023-04-18T03:09:58.202Z,11.50
2023-04-18T03:12:24.936Z,11.50
2023-04-18T03:14:51.714Z,11.50
2023-04-18T03:17:18.623Z,11.50
2023-04-18T03:19:46.408Z,11.40
2023-04-18T03:22:13.997Z,11.40
2023-04-18T03:24:40.853Z,11.40
2023-04-18T03:27:07.608Z,11.40
2023-04-18T03:29:34.292Z,11.40
2023-04-18T03:32:00.958Z,11.40
2023-04-18T03:34:28.149Z,11.40
2023-04-18T03:36:54.811Z,11.40
2023-04-18T03:39:21.476Z,11.40
2023-04-18T03:41:49.329Z,11.40
2023-04-18T03:44:16.077Z,11.30
2023-04-18T03:46:42.932Z,11.40
2023-04-18T03:49:09.735Z,11.40
2023-04-18T03:51:47.709Z,11.40
2023-04-18T03:54:15.633Z,11.30
2023-04-18T03:56:42.798Z,11.30
2023-04-18T03:59:09.875Z,11.30
2023-04-18T04:01:37.142Z,11.30
2023-04-18T04:04:04.632Z,11.30
2023-04-18T04:06:32.157Z,11.30
2023-04-18T04:08:58.793Z,11.30
2023-04-18T04:11:25.973Z,11.30
2023-04-18T04:13:52.994Z,11.20
2023-04-18T04:16:19.676Z,11.30
2023-04-18T04:18:46.362Z,11.20
2023-04-18T04:21:13.091Z,11.20
2023-04-18T04:23:42.672Z,11.20
2023-04-18T04:26:09.768Z,11.20
2023-04-18T04:28:36.394Z,11.20
2023-04-18T04:31:06.801Z,11.20
2023-04-18T04:33:33.459Z,11.10
2023-04-18T04:36:01.233Z,12.70
2023-04-18T04:38:30.933Z,11.10
2023-04-18T04:40:58.257Z,11.10
2023-04-18T04:43:26.058Z,11.10
2023-04-18T04:45:53.970Z,11.10
2023-04-18T04:48:23.557Z,11.10
2023-04-18T04:50:59.805Z,11.10
2023-04-18T04:53:30.580Z,11.00
2023-04-18T04:55:58.153Z,10.70
2023-04-18T04:58:24.917Z,11.00
2023-04-18T05:00:52.646Z,11.00
2023-04-18T05:03:19.834Z,11.00
2023-04-18T05:05:46.649Z,11.00
2023-04-18T05:08:13.313Z,10.70
2023-04-18T05:10:40.880Z,11.00
2023-04-18T05:13:07.545Z,10.90
2023-04-18T05:15:34.666Z,10.90
2023-04-18T05:18:01.421Z,10.90
2023-04-18T05:20:28.237Z,10.90
2023-04-18T05:22:54.900Z,10.90
2023-04-18T05:25:21.758Z,10.90
2023-04-18T05:27:48.442Z,10.80
2023-04-18T05:30:15.250Z,10.80
2023-04-18T05:32:42.268Z,12.30
2023-04-18T05:35:11.196Z,10.80
2023-04-18T05:37:48.019Z,10.80
2023-04-18T05:40:33.289Z,10.80
2023-04-18T05:43:01.098Z,10.80
2023-04-18T05:45:27.804Z,10.80
2023-04-18T05:47:54.593Z,10.80
2023-04-18T05:50:21.544Z,10.80
2023-04-18T05:52:48.180Z,10.80
2023-04-18T05:55:14.854Z,10.80
2023-04-18T05:57:41.616Z,10.80
2023-04-18T06:00:11.722Z,10.80
2023-04-18T06:02:38.537Z,10.80
2023-04-18T06:05:06.537Z,10.80
2023-04-18T06:07:33.329Z,10.80
2023-04-18T06:09:59.963Z,9.40
2023-04-18T06:12:26.649Z,10.80
2023-04-18T06:14:53.295Z,10.80
2023-04-18T06:17:21.313Z,10.80
2023-04-18T06:19:47.980Z,10.80
2023-04-18T06:22:14.640Z,10.90
2023-04-18T06:24:41.342Z,10.80
2023-04-18T06:27:14.950Z,10.80
2023-04-18T06:29:44.395Z,10.90
2023-04-18T06:32:11.191Z,11.80
2023-04-18T06:34:38.535Z,10.90
2023-04-18T06:37:05.886Z,10.90
2023-04-18T06:39:32.847Z,10.90
2023-04-18T06:41:59.931Z,12.90
2023-04-18T06:44:26.915Z,10.90
2023-04-18T06:46:54.715Z,10.90
2023-04-18T06:49:26.274Z,10.90
2023-04-18T06:51:53.361Z,10.90
2023-04-18T06:54:20.100Z,11.00
2023-04-18T06:56:46.794Z,11.00
2023-04-18T06:59:13.616Z,11.00
2023-04-18T07:01:43.598Z,11.00
2023-04-18T07:04:10.381Z,9.30
2023-04-18T07:06:37.736Z,11.00
2023-04-18T07:09:05.037Z,11.10
2023-04-18T07:11:33.450Z,11.10
2023-04-18T07:14:00.364Z,11.10
2023-04-18T07:16:27.222Z,11.10
2023-04-18T07:18:53.909Z,11.10
2023-04-18T07:21:20.573Z,11.10
2023-04-18T07:23:47.270Z,11.10
2023-04-18T07:26:14.037Z,11.40
2023-04-18T07:28:40.700Z,11.10
2023-04-18T07:31:11.249Z,11.10
2023-04-18T07:33:38.830Z,11.20
2023-04-18T07:36:06.183Z,11.20
2023-04-18T07:38:35.285Z,11.20
2023-04-18T07:41:02.817Z,12.30
2023-04-18T07:43:29.552Z,11.20
2023-04-18T07:45:56.278Z,11.30
2023-04-18T07:48:23.073Z,11.20
2023-04-18T07:50:49.874Z,11.30
2023-04-18T07:53:16.741Z,11.30
2023-04-18T07:55:43.536Z,11.30
2023-04-18T07:58:10.204Z,11.30
2023-04-18T08:00:38.783Z,11.30
2023-04-18T08:03:07.618Z,11.40
2023-04-18T08:05:34.757Z,11.40
2023-04-18T08:08:01.585Z,11.40
2023-04-18T08:10:28.509Z,11.40
2023-04-18T08:12:55.165Z,11.40
2023-04-18T08:15:21.825Z,11.40
2023-04-18T08:17:49.560Z,11.40
2023-04-18T08:20:16.251Z,11.50
2023-04-18T08:23:01.390Z,11.50
2023-04-18T08:25:31.666Z,11.50
2023-04-18T08:27:58.448Z,11.50
2023-04-18T08:30:25.261Z,11.60
2023-04-18T08:32:52.026Z,11.60
2023-04-18T08:35:18.767Z,12.10
2023-04-18T08:37:45.637Z,11.70
2023-04-18T08:40:12.403Z,12.70
2023-04-18T08:42:39.569Z,11.80
2023-04-18T08:45:07.039Z,11.80
2023-04-18T08:47:35.399Z,12.70
2023-04-18T08:50:02.236Z,11.90
2023-04-18T08:52:30.908Z,11.90
2023-04-18T08:54:57.691Z,12.00
2023-04-18T08:57:27.201Z,12.00
2023-04-18T08:59:55.330Z,12.10
2023-04-18T09:02:23.374Z,12.20
2023-04-18T09:04:53.591Z,12.20
2023-04-18T09:07:28.399Z,12.30
2023-04-18T09:09:57.602Z,12.30
2023-04-18T09:12:26.403Z,12.40
2023-04-18T09:14:58.321Z,12.50
2023-04-18T09:17:38.083Z,12.50
2023-04-18T09:20:06.156Z,12.60
2023-04-18T09:22:47.957Z,12.60
2023-04-18T09:25:25.012Z,12.70
2023-04-18T09:27:52.465Z,12.70
2023-04-18T09:30:39.617Z,12.80
2023-04-18T09:33:10.244Z,12.90
2023-04-18T09:35:38.246Z,12.90
2023-04-18T09:38:05.942Z,12.90
2023-04-18T09:40:33.303Z,13.00
2023-04-18T09:43:00.324Z,13.00
2023-04-18T09:45:27.545Z,14.00
2023-04-18T09:47:55.905Z,13.20
2023-04-18T09:50:22.717Z,13.10
2023-04-18T09:52:51.043Z,13.20
2023-04-18T09:55:18.880Z,13.20
2023-04-18T09:57:48.959Z,13.30
2023-04-18T10:00:23.831Z,13.30
2023-04-18T10:02:51.804Z,13.30
2023-04-18T10:05:21.230Z,13.40
2023-04-18T10:07:49.432Z,13.40
2023-04-18T10:10:16.292Z,13.50
2023-04-18T10:12:43.247Z,13.50
2023-04-18T10:15:11.553Z,12.10
2023-04-18T10:18:09.275Z,13.50
2023-04-18T10:20:36.373Z,13.60
2023-04-18T10:23:30.882Z,13.60
2023-04-18T10:25:58.396Z,13.70
2023-04-18T10:28:26.499Z,13.70
2023-04-18T10:31:04.250Z,13.80
2023-04-18T10:33:41.067Z,13.80
2023-04-18T10:36:09.040Z,13.80
2023-04-18T10:38:38.728Z,13.90
2023-04-18T10:41:25.442Z,13.90
2023-04-18T10:44:10.108Z,14.00
2023-04-18T10:46:38.286Z,14.00
2023-04-18T10:49:28.937Z,14.10
2023-04-18T10:52:01.883Z,14.10
2023-04-18T10:54:47.962Z,14.20
2023-04-18T10:57:15.253Z,14.20
2023-04-18T10:59:43.752Z,14.30
2023-04-18T11:02:30.793Z,14.40
2023-04-18T11:05:04.591Z,14.40
2023-04-18T11:07:38.156Z,14.50
2023-04-18T11:10:05.877Z,14.50
2023-04-18T11:12:36.295Z,14.50
2023-04-18T11:15:17.688Z,14.60
2023-04-18T11:17:44.709Z,14.60
2023-04-18T11:20:15.197Z,14.70
2023-04-18T11:22:46.783Z,14.70
2023-04-18T11:25:14.111Z,14.80
2023-04-18T11:27:45.362Z,14.80
2023-04-18T11:30:13.250Z,14.80
2023-04-18T11:32:40.202Z,14.90
2023-04-18T11:35:09.704Z,14.90
2023-04-18T11:37:37.798Z,14.90
2023-04-18T11:40:07.578Z,15.00
2023-04-18T11:42:35.492Z,15.00
2023-04-18T11:45:03.166Z,15.00
2023-04-18T11:47:33.079Z,15.00
2023-04-18T11:50:05.208Z,15.10
2023-04-18T11:52:32.912Z,15.10
2023-04-18T11:55:22.123Z,15.10
2023-04-18T11:57:59.262Z,15.10
2023-04-18T12:00:35.242Z,15.10
2023-04-18T12:03:04.730Z,15.10
2023-04-18T12:05:33.591Z,15.20
2023-04-18T12:08:22.600Z,15.20
2023-04-18T12:10:51.108Z,15.20
2023-04-18T12:13:18.700Z,15.20
2023-04-18T12:15:46.838Z,15.20
2023-04-18T12:18:15.363Z,15.20
2023-04-18T12:20:52.599Z,15.30
2023-04-18T12:23:30.437Z,15.30
2023-04-18T12:26:27.464Z,15.30
2023-04-18T12:28:54.203Z,15.30
2023-04-18T12:31:24.274Z,15.40
2023-04-18T12:36:18.183Z,15.40
2023-04-18T12:38:45.712Z,15.50
2023-04-18T12:41:12.668Z,15.50
2023-04-18T12:43:39.321Z,15.50
2023-04-18T12:46:06.006Z,15.50
2023-04-18T12:48:32.672Z,15.50
2023-04-18T12:50:59.324Z,15.60
2023-04-18T12:53:26.157Z,15.60
2023-04-18T12:55:52.804Z,15.70
2023-04-18T12:58:20.535Z,15.70
2023-04-18T13:00:47.327Z,15.70
2023-04-18T13:03:14.276Z,15.70
2023-04-18T13:05:41.384Z,15.80
2023-04-18T13:08:16.897Z,15.80
2023-04-18T13:10:44.352Z,15.80
2023-04-18T13:13:11.084Z,15.80
2023-04-18T13:15:38.042Z,15.80
2023-04-18T13:18:06.463Z,15.90
2023-04-18T13:20:34.154Z,15.90
2023-04-18T13:23:02.648Z,15.90
2023-04-18T13:25:29.449Z,16.00
2023-04-18T13:27:58.539Z,16.00
2023-04-18T13:30:25.558Z,16.00
2023-04-18T13:32:52.465Z,16.10
2023-04-18T13:35:19.216Z,16.10
2023-04-18T13:37:46.357Z,16.10
2023-04-18T13:40:13.940Z,16.10
2023-04-18T13:42:40.724Z,16.20
2023-04-18T13:45:07.908Z,16.20
2023-04-18T13:47:35.190Z,16.20
2023-04-18T13:50:02.087Z,16.20
2023-04-18T13:52:28.891Z,16.20
2023-04-18T13:54:55.640Z,16.30
2023-04-18T13:57:23.152Z,16.30
2023-04-18T13:59:49.913Z,16.30
2023-04-18T14:02:16.875Z,16.30
2023-04-18T14:04:43.902Z,16.30
2023-04-18T14:07:10.745Z,16.30
2023-04-18T14:09:37.720Z,16.30
2023-04-18T14:12:04.714Z,16.30
2023-04-18T14:14:31.403Z,16.40
2023-04-18T14:16:58.133Z,16.40
2023-04-18T14:19:25.011Z,16.40
2023-04-18T14:21:51.716Z,16.40
2023-04-18T14:24:18.652Z,16.40
2023-04-18T14:26:45.450Z,16.40
2023-04-18T14:29:12.501Z,16.40
2023-04-18T14:31:39.662Z,16.40
2023-04-18T14:34:08.353Z,16.40
2023-04-18T14:36:35.240Z,16.40
2023-04-18T14:39:01.936Z,16.40
2023-04-18T14:41:28.686Z,16.40
2023-04-18T14:43:55.559Z,16.40
2023-04-18T14:46:22.336Z,16.40
2023-04-18T14:48:49.125Z,16.40
2023-04-18T14:51:16.665Z,16.50
2023-04-18T14:53:44.156Z,16.40
2023-04-18T14:56:10.983Z,16.50
2023-04-18T14:58:37.712Z,16.50
2023-04-18T15:01:04.666Z,16.50
2023-04-18T15:03:31.674Z,16.50
2023-04-18T15:05:58.488Z,16.50
2023-04-18T15:08:25.293Z,16.50
2023-04-18T15:10:52.555Z,16.50
2023-04-18T15:13:19.469Z,16.50
2023-04-18T15:15:56.552Z,16.50
2023-04-18T15:18:23.382Z,16.60
2023-04-18T15:20:50.683Z,16.60
2023-04-18T15:23:17.641Z,16.60
2023-04-18T15:25:45.403Z,16.60
2023-04-18T15:28:16.088Z,16.60
2023-04-18T15:30:42.760Z,16.60
2023-04-18T15:33:10.939Z,16.60
2023-04-18T15:35:38.047Z,16.60
2023-04-18T15:38:05.891Z,16.60
2023-04-18T15:40:35.722Z,16.60
2023-04-18T15:43:05.372Z,16.60
2023-04-18T15:45:34.781Z,16.60
2023-04-18T15:48:02.178Z,16.60
2023-04-18T15:50:30.271Z,16.60
2023-04-18T15:52:59.040Z,16.60
2023-04-18T15:55:25.993Z,16.60
2023-04-18T15:57:53.428Z,16.60
2023-04-18T16:00:22.821Z,16.50
2023-04-18T16:02:49.813Z,16.50
2023-04-18T16:05:17.469Z,16.50
2023-04-18T16:07:44.474Z,16.50
2023-04-18T16:10:12.691Z,16.50
2023-04-18T16:12:45.549Z,16.50
2023-04-18T16:15:12.862Z,17.10
2023-04-18T16:17:39.765Z,16.50
2023-04-18T16:20:08.934Z,16.50
2023-04-18T16:22:36.375Z,16.50
2023-04-18T16:25:04.035Z,16.50
2023-04-18T16:27:30.922Z,16.40
2023-04-18T16:29:57.575Z,16.40
2023-04-18T16:32:24.369Z,16.40
2023-04-18T16:34:53.832Z,16.40
2023-04-18T16:37:21.053Z,16.40
2023-04-18T16:39:47.959Z,16.40
2023-04-18T16:42:15.841Z,16.40
2023-04-18T16:44:44.660Z,16.40
2023-04-18T16:47:11.351Z,16.30
2023-04-18T16:49:38.008Z,16.30
2023-04-18T16:52:04.839Z,16.30
2023-04-18T16:54:31.487Z,16.40
2023-04-18T16:56:58.415Z,16.30
2023-04-18T16:59:25.157Z,16.30
2023-04-18T17:01:53.784Z,16.30
2023-04-18T17:04:23.568Z,16.20
2023-04-18T17:06:52.056Z,16.20
2023-04-18T17:09:19.713Z,16.20
2023-04-18T17:11:46.794Z,16.60
2023-04-18T17:14:13.727Z,16.20
2023-04-18T17:16:41.950Z,16.20
2023-04-18T17:19:09.403Z,16.10
2023-04-18T17:21:36.643Z,16.10
2023-04-18T17:24:05.780Z,16.10
2023-04-18T17:26:33.573Z,16.10
2023-04-18T17:29:02.665Z,16.10
2023-04-18T17:31:29.909Z,16.10
2023-04-18T17:33:56.838Z,16.10
2023-04-18T17:36:23.814Z,16.10
2023-04-18T17:38:50.848Z,16.10
2023-04-18T17:41:18.739Z,15.20
2023-04-18T17:43:46.038Z,15.90
2023-04-18T17:46:13.950Z,15.90
2023-04-18T17:48:42.055Z,15.90
2023-04-18T17:51:13.594Z,15.90
2023-04-18T17:53:45.306Z,15.90
2023-04-18T17:56:13.014Z,15.90
2023-04-18T17:58:39.848Z,15.90
2023-04-18T18:01:16.881Z,15.90
2023-04-18T18:03:44.318Z,15.80
2023-04-18T18:06:14.837Z,15.80
2023-04-18T18:08:42.926Z,15.80
2023-04-18T18:11:11.069Z,15.80
2023-04-18T18:13:40.368Z,15.80
2023-04-18T18:16:07.783Z,15.70
2023-04-18T18:18:34.652Z,15.70
2023-04-18T18:21:01.304Z,15.70
2023-04-18T18:23:28.125Z,15.70
2023-04-18T18:25:54.819Z,15.70
2023-04-18T18:28:21.527Z,15.70
2023-04-18T18:30:48.283Z,15.70
2023-04-18T18:33:15.112Z,15.70
2023-04-18T18:35:41.932Z,15.60
2023-04-18T18:38:08.612Z,15.60
2023-04-18T18:40:35.582Z,15.60
2023-04-18T18:43:02.297Z,15.60
2023-04-18T18:45:29.189Z,15.50
2023-04-18T18:47:55.873Z,15.50
2023-04-18T18:50:23.211Z,15.50
2023-04-18T18:52:49.882Z,15.50
2023-04-18T18:55:16.710Z,15.50
2023-04-18T18:57:43.406Z,15.50
2023-04-18T19:00:14.280Z,15.50
2023-04-18T19:02:41.140Z,15.40
2023-04-18T19:05:08.706Z,14.40
2023-04-18T19:07:35.569Z,15.40
2023-04-18T19:10:02.269Z,15.40
2023-04-18T19:12:29.610Z,15.30
2023-04-18T19:14:56.266Z,15.30
2023-04-18T19:17:24.741Z,15.30
2023-04-18T19:19:52.283Z,15.30
2023-04-18T19:22:19.035Z,15.30
2023-04-18T19:24:45.701Z,15.20
2023-04-18T19:27:12.434Z,15.30
2023-04-18T19:29:39.377Z,15.30
2023-04-18T19:32:06.710Z,15.20
2023-04-18T19:34:33.429Z,15.20
2023-04-18T19:37:01.224Z,15.20
2023-04-18T19:39:28.094Z,15.20
2023-04-18T19:41:54.837Z,15.20
2023-04-18T19:44:21.653Z,15.20
2023-04-18T19:46:48.402Z,15.10
2023-04-18T19:49:15.220Z,15.10
2023-04-18T19:51:41.945Z,15.10
2023-04-18T19:54:08.651Z,15.10
2023-04-18T19:56:35.336Z,15.10
2023-04-18T19:59:02.381Z,15.00
2023-04-18T20:01:29.513Z,15.00
2023-04-18T20:03:58.532Z,15.00
2023-04-18T20:06:26.718Z,15.00
2023-04-18T20:08:53.617Z,15.00
2023-04-18T20:11:20.707Z,15.00
2023-04-18T20:13:47.574Z,14.80
2023-04-18T20:16:15.249Z,14.90
2023-04-18T20:18:42.124Z,14.90
2023-04-18T20:21:09.995Z,14.90
2023-04-18T20:23:37.108Z,14.90
2023-04-18T20:26:04.385Z,14.80
2023-04-18T20:28:31.817Z,14.80
2023-04-18T20:30:58.828Z,14.90
2023-04-18T20:33:25.695Z,14.80
2023-04-18T20:35:54.733Z,14.70
2023-04-18T20:38:25.830Z,14.80
2023-04-18T20:40:54.197Z,14.70
2023-04-18T20:43:22.525Z,14.70
2023-04-18T20:45:53.599Z,14.70
2023-04-18T20:48:20.984Z,14.70
2023-04-18T20:50:51.456Z,14.60
2023-04-18T20:53:22.402Z,14.60
2023-04-18T20:55:49.177Z,14.60
2023-04-18T20:58:16.087Z,14.60
2023-04-18T21:00:44.448Z,14.60
2023-04-18T21:03:14.593Z,14.50
2023-04-18T21:05:42.569Z,14.50
2023-04-18T21:08:09.230Z,14.50
2023-04-18T21:10:35.880Z,15.50
2023-04-18T21:13:02.553Z,14.50
2023-04-18T21:15:29.265Z,14.50
2023-04-18T21:17:56.052Z,14.50
2023-04-18T21:20:22.876Z,14.50
2023-04-18T21:22:49.522Z,14.40
2023-04-18T21:25:16.487Z,14.40
2023-04-18T21:27:43.140Z,14.40
2023-04-18T21:30:10.025Z,14.40
2023-04-18T21:32:36.788Z,14.40
2023-04-18T21:35:03.617Z,14.40
2023-04-18T21:37:31.435Z,14.30
2023-04-18T21:39:58.073Z,14.30
2023-04-18T21:42:25.404Z,14.30
2023-04-18T21:44:52.063Z,14.30
2023-04-18T21:47:18.712Z,14.30
2023-04-18T21:49:45.352Z,14.30
2023-04-18T21:52:12.082Z,14.30
2023-04-18T21:54:39.876Z,14.30
2023-04-18T21:57:06.710Z,14.30
2023-04-18T21:59:33.368Z,14.20
2023-04-18T22:02:00.150Z,14.20
2023-04-18T22:04:27.665Z,14.20
2023-04-18T22:06:54.620Z,14.20
2023-04-18T22:09:22.432Z,14.20
2023-04-18T22:11:52.159Z,14.20
2023-04-18T22:14:19.959Z,14.10
2023-04-18T22:16:46.684Z,14.20
2023-04-18T22:19:14.052Z,14.10
2023-04-18T22:21:40.762Z,14.10
2023-04-18T22:24:08.064Z,14.10
2023-04-18T22:26:34.719Z,14.10
2023-04-18T22:29:01.371Z,14.10
2023-04-18T22:31:28.215Z,14.10
2023-04-18T22:33:54.967Z,14.10
2023-04-18T22:36:21.627Z,14.00
2023-04-18T22:38:48.271Z,14.10
2023-04-18T22:41:14.924Z,14.00
2023-04-18T22:43:41.588Z,14.00
2023-04-18T22:46:08.272Z,14.00
2023-04-18T22:48:35.172Z,14.00
2023-04-18T22:51:01.950Z,14.00
2023-04-18T22:53:28.617Z,13.90
2023-04-18T22:55:55.335Z,13.90
2023-04-18T22:58:21.964Z,13.90
2023-04-18T23:00:48.919Z,13.90
2023-04-18T23:03:15.792Z,13.90
2023-04-18T23:05:42.584Z,13.90
2023-04-18T23:08:09.317Z,13.90
2023-04-18T23:10:36.034Z,13.90
2023-04-18T23:13:02.751Z,13.80
2023-04-18T23:15:29.464Z,13.80
2023-04-18T23:17:56.234Z,13.90
2023-04-18T23:20:24.044Z,13.90
2023-04-18T23:22:51.630Z,13.90
2023-04-18T23:25:19.604Z,13.80
2023-04-18T23:27:46.918Z,13.80
2023-04-18T23:30:13.687Z,13.80
2023-04-18T23:32:40.368Z,13.80
2023-04-18T23:35:07.281Z,13.80
2023-04-18T23:37:33.920Z,13.80
2023-04-18T23:40:00.691Z,13.80
2023-04-18T23:42:27.494Z,13.80
2023-04-18T23:44:54.636Z,13.70
2023-04-18T23:47:21.868Z,13.40
2023-04-18T23:49:48.638Z,13.70
2023-04-18T23:52:15.914Z,13.70
2023-04-18T23:54:42.613Z,13.70
2023-04-18T23:57:09.313Z,13.60
2023-04-18T23:59:36.080Z,13.70
